sensor_id;sensor_type;location;lat;lon;timestamp;temperature;humidity
7204;DHT22;3643;52.460;13.322;2022-09-21T03:53:02;6.30;99.90
7204;DHT22;3643;52.460;13.322;2022-09-21T03:55:31;6.30;99.90
7204;DHT22;3643;52.460;13.322;2022-09-21T03:58:00;6.30;99.90
7204;DHT22;3643;52.460;13.322;2022-09-21T04:00:29;6.30;99.90
7204;DHT22;3643;52.460;13.322;2022-09-21T04:02:58;6.30;99.90
7204;DHT22;3643;52.460;13.322;2022-09-21T04:05:28;6.30;99.90
7204;DHT22;3643;52.460;13.322;2022-09-21T04:07:56;6.30;99.90
7204;DHT22;3643;52.460;13.322;2022-09-21T04:10:26;6.30;99.90
7204;DHT22;3643;52.460;13.322;2022-09-21T04:12:59;6.30;99.90
7204;DHT22;3643;52.460;13.322;2022-09-21T04:15:29;6.30;99.90
7204;DHT22;3643;52.460;13.322;2022-09-21T04:17:58;6.30;99.90
7204;DHT22;3643;52.460;13.322;2022-09-21T04:20:26;6.30;99.90
7204;DHT22;3643;52.460;13.322;2022-09-21T04:22:55;6.30;99.90
7204;DHT22;3643;52.460;13.322;2022-09-21T04:25:25;6.30;99.90
7204;DHT22;3643;52.460;13.322;2022-09-21T04:27:54;6.30;99.90
7204;DHT22;3643;52.460;13.322;2022-09-21T04:30:23;6.30;99.90
7204;DHT22;3643;52.460;13.322;2022-09-21T04:32:51;6.20;99.90
7204;DHT22;3643;52.460;13.322;2022-09-21T04:35:20;6.20;99.90
7204;DHT22;3643;52.460;13.322;2022-09-21T04:37:48;6.30;99.90
7204;DHT22;3643;52.460;13.322;2022-09-21T04:40:17;6.30;99.90
7204;DHT22;3643;52.460;13.322;2022-09-21T04:42:51;6.30;99.90
7204;DHT22;3643;52.460;13.322;2022-09-21T04:45:20;6.20;99.90
7204;DHT22;3643;52.460;13.322;2022-09-21T04:47:49;6.20;99.90
7204;DHT22;3643;52.460;13.322;2022-09-21T04:50:18;6.20;99.90
7204;DHT22;3643;52.460;13.322;2022-09-21T04:52:46;6.20;99.90
7204;DHT22;3643;52.460;13.322;2022-09-21T04:55:15;6.20;99.90
7204;DHT22;3643;52.460;13.322;2022-09-21T04:57:43;6.20;99.90
7204;DHT22;3643;52.460;13.322;2022-09-21T05:00:14;6.20;99.90
7204;DHT22;3643;52.460;13.322;2022-09-21T05:02:43;6.30;99.90
7204;DHT22;3643;52.460;13.322;2022-09-21T05:05:12;6.30;99.90
7204;DHT22;3643;52.460;13.322;2022-09-21T05:07:40;6.30;99.90
7204;DHT22;3643;52.460;13.322;2022-09-21T05:10:09;6.30;99.90
7204;DHT22;3643;52.460;13.322;2022-09-21T05:12:37;6.30;99.90
7204;DHT22;3643;52.460;13.322;2022-09-21T05:15:08;6.30;99.90
7204;DHT22;3643;52.460;13.322;2022-09-21T05:17:39;6.30;99.90
7204;DHT22;3643;52.460;13.322;2022-09-21T05:20:08;6.40;99.90
7204;DHT22;3643;52.460;13.322;2022-09-21T05:22:37;6.40;99.90
7204;DHT22;3643;52.460;13.322;2022-09-21T05:25:07;6.40;99.90
7204;DHT22;3643;52.460;13.322;2022-09-21T05:27:35;6.40;99.90
7204;DHT22;3643;52.460;13.322;2022-09-21T05:30:05;6.40;99.90
7204;DHT22;3643;52.460;13.322;2022-09-21T05:32:43;6.50;99.90
7204;DHT22;3643;52.460;13.322;2022-09-21T05:35:24;6.50;99.90
7204;DHT22;3643;52.460;13.322;2022-09-21T05:38:00;6.50;99.90
7204;DHT22;3643;52.460;13.322;2022-09-21T05:40:31;6.60;99.90
7204;DHT22;3643;52.460;13.322;2022-09-21T05:43:00;6.60;99.90
7204;DHT22;3643;52.460;13.322;2022-09-21T05:45:29;6.60;99.90
7204;DHT22;3643;52.460;13.322;2022-09-21T05:48:06;6.70;99.90
7204;DHT22;3643;52.460;13.322;2022-09-21T05:50:52;6.80;99.90
7204;DHT22;3643;52.460;13.322;2022-09-21T05:53:43;6.90;99.90
7204;DHT22;3643;52.460;13.322;2022-09-21T05:56:21;7.10;99.90
7204;DHT22;3643;52.460;13.322;2022-09-21T05:58:58;7.30;99.90
7204;DHT22;3643;52.460;13.322;2022-09-21T06:01:38;7.50;99.90
7204;DHT22;3643;52.460;13.322;2022-09-21T06:04:11;8.40;99.90
7204;DHT22;3643;52.460;13.322;2022-09-21T06:06:40;10.20;99.90
7204;DHT22;3643;52.460;13.322;2022-09-21T06:09:14;11.90;99.90
7204;DHT22;3643;52.460;13.322;2022-09-21T06:11:43;12.50;99.90
7204;DHT22;3643;52.460;13.322;2022-09-21T06:14:11;12.40;99.90
7204;DHT22;3643;52.460;13.322;2022-09-21T06:16:41;12.00;99.90
7204;DHT22;3643;52.460;13.322;2022-09-21T06:19:12;11.60;99.90
7204;DHT22;3643;52.460;13.322;2022-09-21T06:21:40;11.50;99.90
7204;DHT22;3643;52.460;13.322;2022-09-21T06:24:09;11.40;99.90
7204;DHT22;3643;52.460;13.322;2022-09-21T06:26:38;11.30;99.90
7204;DHT22;3643;52.460;13.322;2022-09-21T06:29:07;11.10;99.90
7204;DHT22;3643;52.460;13.322;2022-09-21T06:31:35;11.00;99.90
7204;DHT22;3643;52.460;13.322;2022-09-21T06:34:04;11.10;99.90
7204;DHT22;3643;52.460;13.322;2022-09-21T06:36:34;11.20;99.90
7204;DHT22;3643;52.460;13.322;2022-09-21T06:39:02;11.10;99.90
7204;DHT22;3643;52.460;13.322;2022-09-21T06:41:31;10.80;99.90
7204;DHT22;3643;52.460;13.322;2022-09-21T06:43:59;10.40;99.90
7204;DHT22;3643;52.460;13.322;2022-09-21T06:46:27;10.20;99.90
7204;DHT22;3643;52.460;13.322;2022-09-21T06:48:57;10.20;99.90
7204;DHT22;3643;52.460;13.322;2022-09-21T06:51:25;9.90;99.90
7204;DHT22;3643;52.460;13.322;2022-09-21T06:53:56;9.90;99.90
7204;DHT22;3643;52.460;13.322;2022-09-21T06:56:25;9.90;99.90
7204;DHT22;3643;52.460;13.322;2022-09-21T06:58:54;10.00;99.90
7204;DHT22;3643;52.460;13.322;2022-09-21T07:01:22;9.90;99.90
7204;DHT22;3643;52.460;13.322;2022-09-21T07:03:51;10.00;99.90
7204;DHT22;3643;52.460;13.322;2022-09-21T07:06:20;10.00;99.90
7204;DHT22;3643;52.460;13.322;2022-09-21T07:08:50;10.10;99.90
7204;DHT22;3643;52.460;13.322;2022-09-21T07:11:40;10.10;99.90
7204;DHT22;3643;52.460;13.322;2022-09-21T07:14:09;10.30;99.90
7204;DHT22;3643;52.460;13.322;2022-09-21T07:16:37;10.10;99.90
7204;DHT22;3643;52.460;13.322;2022-09-21T07:19:06;10.50;99.90
7204;DHT22;3643;52.460;13.322;2022-09-21T07:21:38;10.20;99.90
7204;DHT22;3643;52.460;13.322;2022-09-21T07:24:06;10.30;99.90
7204;DHT22;3643;52.460;13.322;2022-09-21T07:26:40;10.40;99.90
7204;DHT22;3643;52.460;13.322;2022-09-21T07:29:08;10.60;99.90
7204;DHT22;3643;52.460;13.322;2022-09-21T07:31:42;10.70;99.90
7204;DHT22;3643;52.460;13.322;2022-09-21T07:34:11;10.90;99.90
7204;DHT22;3643;52.460;13.322;2022-09-21T07:36:39;11.00;99.90
7204;DHT22;3643;52.460;13.322;2022-09-21T07:39:09;11.10;99.90
7204;DHT22;3643;52.460;13.322;2022-09-21T07:41:40;11.00;99.90
7204;DHT22;3643;52.460;13.322;2022-09-21T07:44:09;11.10;99.90
7204;DHT22;3643;52.460;13.322;2022-09-21T07:46:37;11.10;99.90
7204;DHT22;3643;52.460;13.322;2022-09-21T07:49:14;10.80;99.90
7204;DHT22;3643;52.460;13.322;2022-09-21T07:51:42;11.10;99.90
7204;DHT22;3643;52.460;13.322;2022-09-21T07:54:11;11.00;99.90
7204;DHT22;3643;52.460;13.322;2022-09-21T07:56:43;11.00;99.90
7204;DHT22;3643;52.460;13.322;2022-09-21T07:59:31;11.20;99.90
7204;DHT22;3643;52.460;13.322;2022-09-21T08:01:58;11.30;99.90
7204;DHT22;3643;52.460;13.322;2022-09-21T08:04:27;11.30;99.90
7204;DHT22;3643;52.460;13.322;2022-09-21T08:06:55;11.40;99.90
7204;DHT22;3643;52.460;13.322;2022-09-21T08:09:24;11.70;99.90
7204;DHT22;3643;52.460;13.322;2022-09-21T08:11:54;11.70;99.90
7204;DHT22;3643;52.460;13.322;2022-09-21T08:14:22;11.80;99.90
7204;DHT22;3643;52.460;13.322;2022-09-21T08:16:52;12.00;99.90
7204;DHT22;3643;52.460;13.322;2022-09-21T08:19:21;11.70;99.90
7204;DHT22;3643;52.460;13.322;2022-09-21T08:21:52;11.80;99.90
7204;DHT22;3643;52.460;13.322;2022-09-21T08:24:23;12.10;99.90
7204;DHT22;3643;52.460;13.322;2022-09-21T08:26:54;12.30;99.90
7204;DHT22;3643;52.460;13.322;2022-09-21T08:29:23;12.50;99.90
7204;DHT22;3643;52.460;13.322;2022-09-21T08:31:52;12.60;99.90
7204;DHT22;3643;52.460;13.322;2022-09-21T08:34:20;12.70;99.90
7204;DHT22;3643;52.460;13.322;2022-09-21T08:36:50;12.80;99.90
7204;DHT22;3643;52.460;13.322;2022-09-21T08:39:21;12.80;99.90
7204;DHT22;3643;52.460;13.322;2022-09-21T08:42:08;12.90;99.90
7204;DHT22;3643;52.460;13.322;2022-09-21T08:44:40;12.90;99.90
7204;DHT22;3643;52.460;13.322;2022-09-21T08:47:14;12.80;99.90
7204;DHT22;3643;52.460;13.322;2022-09-21T08:49:48;12.60;99.90
7204;DHT22;3643;52.460;13.322;2022-09-21T08:52:19;12.70;99.90
7204;DHT22;3643;52.460;13.322;2022-09-21T08:54:52;12.90;99.90
7204;DHT22;3643;52.460;13.322;2022-09-21T08:57:27;12.90;99.90
7204;DHT22;3643;52.460;13.322;2022-09-21T08:59:57;13.10;99.90
7204;DHT22;3643;52.460;13.322;2022-09-21T09:02:39;13.20;99.90
7204;DHT22;3643;52.460;13.322;2022-09-21T09:05:21;13.40;99.90
7204;DHT22;3643;52.460;13.322;2022-09-21T09:08:25;13.60;99.90
7204;DHT22;3643;52.460;13.322;2022-09-21T09:11:02;13.50;99.90
7204;DHT22;3643;52.460;13.322;2022-09-21T09:13:45;13.80;99.90
7204;DHT22;3643;52.460;13.322;2022-09-21T09:16:23;13.70;99.90
7204;DHT22;3643;52.460;13.322;2022-09-21T09:18:59;12.80;99.90
7204;DHT22;3643;52.460;13.322;2022-09-21T09:21:33;14.10;99.90
7204;DHT22;3643;52.460;13.322;2022-09-21T09:24:05;14.20;99.90
7204;DHT22;3643;52.460;13.322;2022-09-21T09:26:40;14.10;99.90
7204;DHT22;3643;52.460;13.322;2022-09-21T09:29:17;14.20;99.90
7204;DHT22;3643;52.460;13.322;2022-09-21T09:31:51;14.30;99.90
7204;DHT22;3643;52.460;13.322;2022-09-21T09:34:23;14.30;99.90
7204;DHT22;3643;52.460;13.322;2022-09-21T09:36:59;14.30;99.90
7204;DHT22;3643;52.460;13.322;2022-09-21T09:39:29;14.20;99.90
7204;DHT22;3643;52.460;13.322;2022-09-21T09:42:10;14.10;99.90
7204;DHT22;3643;52.460;13.322;2022-09-21T09:44:58;14.10;99.90
7204;DHT22;3643;52.460;13.322;2022-09-21T09:47:35;14.10;99.90
7204;DHT22;3643;52.460;13.322;2022-09-21T09:50:12;14.10;99.90
7204;DHT22;3643;52.460;13.322;2022-09-21T09:52:48;14.10;99.90
7204;DHT22;3643;52.460;13.322;2022-09-21T09:55:34;14.10;99.90
7204;DHT22;3643;52.460;13.322;2022-09-21T09:58:05;14.00;99.90
7204;DHT22;3643;52.460;13.322;2022-09-21T10:00:36;14.10;99.90
7204;DHT22;3643;52.460;13.322;2022-09-21T10:03:15;14.10;99.90
7204;DHT22;3643;52.460;13.322;2022-09-21T10:05:44;14.20;99.90
7204;DHT22;3643;52.460;13.322;2022-09-21T10:08:28;14.30;99.90
7204;DHT22;3643;52.460;13.322;2022-09-21T10:10:57;14.50;99.90
7204;DHT22;3643;52.460;13.322;2022-09-21T10:13:28;14.50;99.90
7204;DHT22;3643;52.460;13.322;2022-09-21T10:16:00;14.60;99.90
7204;DHT22;3643;52.460;13.322;2022-09-21T10:18:35;14.70;99.90
7204;DHT22;3643;52.460;13.322;2022-09-21T10:21:07;14.80;99.90
7204;DHT22;3643;52.460;13.322;2022-09-21T10:23:36;14.90;99.90
7204;DHT22;3643;52.460;13.322;2022-09-21T10:26:08;15.00;99.90
7204;DHT22;3643;52.460;13.322;2022-09-21T10:28:54;15.20;99.90
7204;DHT22;3643;52.460;13.322;2022-09-21T10:31:25;15.40;99.90
7204;DHT22;3643;52.460;13.322;2022-09-21T10:34:05;15.50;99.90
7204;DHT22;3643;52.460;13.322;2022-09-21T10:36:35;15.60;99.90
7204;DHT22;3643;52.460;13.322;2022-09-21T10:39:26;15.70;99.90
7204;DHT22;3643;52.460;13.322;2022-09-21T10:42:04;15.80;99.90
7204;DHT22;3643;52.460;13.322;2022-09-21T10:44:39;16.00;99.90
7204;DHT22;3643;52.460;13.322;2022-09-21T10:47:30;16.10;99.90
7204;DHT22;3643;52.460;13.322;2022-09-21T10:50:02;16.10;99.90
7204;DHT22;3643;52.460;13.322;2022-09-21T10:52:34;15.90;99.90
7204;DHT22;3643;52.460;13.322;2022-09-21T10:55:05;16.20;99.90
7204;DHT22;3643;52.460;13.322;2022-09-21T10:57:34;16.20;99.90
7204;DHT22;3643;52.460;13.322;2022-09-21T11:00:24;16.10;99.90
7204;DHT22;3643;52.460;13.322;2022-09-21T11:02:58;16.10;99.90
7204;DHT22;3643;52.460;13.322;2022-09-21T11:05:30;16.10;99.90
7204;DHT22;3643;52.460;13.322;2022-09-21T11:08:03;16.10;99.90
7204;DHT22;3643;52.460;13.322;2022-09-21T11:10:39;16.00;99.90
7204;DHT22;3643;52.460;13.322;2022-09-21T11:13:19;16.00;99.90
7204;DHT22;3643;52.460;13.322;2022-09-21T11:15:54;15.90;99.90
7204;DHT22;3643;52.460;13.322;2022-09-21T11:18:36;16.00;99.90
7204;DHT22;3643;52.460;13.322;2022-09-21T11:21:14;16.10;99.90
7204;DHT22;3643;52.460;13.322;2022-09-21T11:23:51;16.30;99.90
7204;DHT22;3643;52.460;13.322;2022-09-21T11:26:26;16.50;99.90
7204;DHT22;3643;52.460;13.322;2022-09-21T11:29:01;16.60;99.90
7204;DHT22;3643;52.460;13.322;2022-09-21T11:31:51;16.60;99.90
7204;DHT22;3643;52.460;13.322;2022-09-21T11:34:51;16.50;99.90
7204;DHT22;3643;52.460;13.322;2022-09-21T11:37:36;16.40;99.90
7204;DHT22;3643;52.460;13.322;2022-09-21T11:40:18;16.30;99.90
7204;DHT22;3643;52.460;13.322;2022-09-21T11:43:04;16.40;99.90
7204;DHT22;3643;52.460;13.322;2022-09-21T11:46:02;16.50;99.90
7204;DHT22;3643;52.460;13.322;2022-09-21T11:48:47;16.70;99.90
7204;DHT22;3643;52.460;13.322;2022-09-21T11:51:34;17.00;99.90
7204;DHT22;3643;52.460;13.322;2022-09-21T11:54:32;17.10;99.90
7204;DHT22;3643;52.460;13.322;2022-09-21T11:57:09;17.30;99.90
7204;DHT22;3643;52.460;13.322;2022-09-21T12:00:10;17.30;99.90
7204;DHT22;3643;52.460;13.322;2022-09-21T12:03:19;17.50;99.90
7204;DHT22;3643;52.460;13.322;2022-09-21T12:06:12;17.50;99.90
7204;DHT22;3643;52.460;13.322;2022-09-21T12:11:41;17.10;99.90
7204;DHT22;3643;52.460;13.322;2022-09-21T12:14:19;17.00;99.90
7204;DHT22;3643;52.460;13.322;2022-09-21T12:16:55;17.00;99.90
7204;DHT22;3643;52.460;13.322;2022-09-21T12:19:32;16.90;99.90
7204;DHT22;3643;52.460;13.322;2022-09-21T12:22:08;16.80;99.90
7204;DHT22;3643;52.460;13.322;2022-09-21T12:24:43;16.70;99.90
7204;DHT22;3643;52.460;13.322;2022-09-21T12:27:20;16.50;99.90
7204;DHT22;3643;52.460;13.322;2022-09-21T12:29:55;16.50;99.90
7204;DHT22;3643;52.460;13.322;2022-09-21T12:32:35;16.40;99.90
7204;DHT22;3643;52.460;13.322;2022-09-21T12:35:14;16.40;99.90
7204;DHT22;3643;52.460;13.322;2022-09-21T12:37:46;16.50;99.90
7204;DHT22;3643;52.460;13.322;2022-09-21T12:40:19;16.60;99.90
7204;DHT22;3643;52.460;13.322;2022-09-21T12:42:55;16.70;99.90
7204;DHT22;3643;52.460;13.322;2022-09-21T12:45:28;16.80;99.90
7204;DHT22;3643;52.460;13.322;2022-09-21T12:48:03;16.70;99.90
7204;DHT22;3643;52.460;13.322;2022-09-21T12:50:37;16.70;99.90
7204;DHT22;3643;52.460;13.322;2022-09-21T12:53:11;16.80;99.90
7204;DHT22;3643;52.460;13.322;2022-09-21T12:55:48;16.80;99.90
7204;DHT22;3643;52.460;13.322;2022-09-21T12:58:45;16.80;99.90
7204;DHT22;3643;52.460;13.322;2022-09-21T13:01:26;16.70;99.90
7204;DHT22;3643;52.460;13.322;2022-09-21T13:04:17;16.70;99.90
7204;DHT22;3643;52.460;13.322;2022-09-21T13:07:10;16.60;99.90
7204;DHT22;3643;52.460;13.322;2022-09-21T13:09:48;16.60;99.90
7204;DHT22;3643;52.460;13.322;2022-09-21T13:12:20;16.50;99.90
7204;DHT22;3643;52.460;13.322;2022-09-21T13:14:54;16.50;99.90
7204;DHT22;3643;52.460;13.322;2022-09-21T13:17:29;16.60;99.90
7204;DHT22;3643;52.460;13.322;2022-09-21T13:19:59;16.60;99.90
7204;DHT22;3643;52.460;13.322;2022-09-21T13:22:30;16.70;99.90
7204;DHT22;3643;52.460;13.322;2022-09-21T13:25:03;16.90;99.90
7204;DHT22;3643;52.460;13.322;2022-09-21T13:28:01;17.00;99.90
7204;DHT22;3643;52.460;13.322;2022-09-21T13:30:33;17.00;99.90
7204;DHT22;3643;52.460;13.322;2022-09-21T13:33:04;16.90;99.90
7204;DHT22;3643;52.460;13.322;2022-09-21T13:36:08;16.80;99.90
7204;DHT22;3643;52.460;13.322;2022-09-21T13:39:03;16.70;99.90
7204;DHT22;3643;52.460;13.322;2022-09-21T13:41:32;16.80;99.90
7204;DHT22;3643;52.460;13.322;2022-09-21T13:44:37;16.90;99.90
7204;DHT22;3643;52.460;13.322;2022-09-21T13:47:07;17.00;99.90
7204;DHT22;3643;52.460;13.322;2022-09-21T13:49:46;16.80;99.90
7204;DHT22;3643;52.460;13.322;2022-09-21T13:52:31;16.70;99.90
7204;DHT22;3643;52.460;13.322;2022-09-21T13:55:03;16.50;99.90
7204;DHT22;3643;52.460;13.322;2022-09-21T13:57:36;16.40;99.90
7204;DHT22;3643;52.460;13.322;2022-09-21T14:03:20;16.20;99.90
7204;DHT22;3643;52.460;13.322;2022-09-21T14:05:51;16.00;99.90
7204;DHT22;3643;52.460;13.322;2022-09-21T14:08:29;15.80;99.90
7204;DHT22;3643;52.460;13.322;2022-09-21T14:11:00;15.70;99.90
7204;DHT22;3643;52.460;13.322;2022-09-21T14:13:33;15.50;99.90
7204;DHT22;3643;52.460;13.322;2022-09-21T14:22:42;15.20;99.90
7204;DHT22;3643;52.460;13.322;2022-09-21T14:25:28;15.20;99.90
7204;DHT22;3643;52.460;13.322;2022-09-21T14:28:04;15.20;99.90
7204;DHT22;3643;52.460;13.322;2022-09-21T14:30:39;15.10;99.90
7204;DHT22;3643;52.460;13.322;2022-09-21T14:33:23;15.20;99.90
7204;DHT22;3643;52.460;13.322;2022-09-21T14:35:53;15.30;99.90
7204;DHT22;3643;52.460;13.322;2022-09-21T14:38:25;15.30;99.90
7204;DHT22;3643;52.460;13.322;2022-09-21T14:41:00;15.40;99.90
7204;DHT22;3643;52.460;13.322;2022-09-21T14:43:32;15.50;99.90
7204;DHT22;3643;52.460;13.322;2022-09-21T14:46:32;15.60;99.90
7204;DHT22;3643;52.460;13.322;2022-09-21T14:49:18;15.80;99.90
7204;DHT22;3643;52.460;13.322;2022-09-21T14:51:58;15.90;99.90
7204;DHT22;3643;52.460;13.322;2022-09-21T14:54:50;16.00;99.90
7204;DHT22;3643;52.460;13.322;2022-09-21T14:57:38;16.10;99.90
7204;DHT22;3643;52.460;13.322;2022-09-21T15:00:17;16.20;99.90
7204;DHT22;3643;52.460;13.322;2022-09-21T15:03:07;16.30;99.90
7204;DHT22;3643;52.460;13.322;2022-09-21T15:05:39;16.40;99.90
7204;DHT22;3643;52.460;13.322;2022-09-21T15:08:28;16.40;99.90
7204;DHT22;3643;52.460;13.322;2022-09-21T15:11:19;16.40;99.90
7204;DHT22;3643;52.460;13.322;2022-09-21T15:14:14;16.30;99.90
7204;DHT22;3643;52.460;13.322;2022-09-21T15:16:45;16.20;99.90
7204;DHT22;3643;52.460;13.322;2022-09-21T15:19:21;16.00;99.90
7204;DHT22;3643;52.460;13.322;2022-09-21T15:21:53;15.80;99.90
7204;DHT22;3643;52.460;13.322;2022-09-21T15:24:28;15.60;99.90
7204;DHT22;3643;52.460;13.322;2022-09-21T15:27:06;15.50;99.90
7204;DHT22;3643;52.460;13.322;2022-09-21T15:29:40;15.40;99.90
7204;DHT22;3643;52.460;13.322;2022-09-21T15:32:23;15.30;99.90
7204;DHT22;3643;52.460;13.322;2022-09-21T15:34:57;15.30;99.90
7204;DHT22;3643;52.460;13.322;2022-09-21T15:37:28;15.20;99.90
7204;DHT22;3643;52.460;13.322;2022-09-21T15:40:03;15.20;99.90
7204;DHT22;3643;52.460;13.322;2022-09-21T15:42:35;15.20;99.90
7204;DHT22;3643;52.460;13.322;2022-09-21T15:45:15;15.30;99.90
7204;DHT22;3643;52.460;13.322;2022-09-21T15:47:44;15.30;99.90
7204;DHT22;3643;52.460;13.322;2022-09-21T15:50:15;15.30;99.90
7204;DHT22;3643;52.460;13.322;2022-09-21T15:52:49;15.20;99.90
7204;DHT22;3643;52.460;13.322;2022-09-21T15:55:20;14.10;99.90
7204;DHT22;3643;52.460;13.322;2022-09-21T15:57:51;15.20;99.90
7204;DHT22;3643;52.460;13.322;2022-09-21T16:00:26;15.20;99.90
7204;DHT22;3643;52.460;13.322;2022-09-21T16:03:03;15.20;99.90
7204;DHT22;3643;52.460;13.322;2022-09-21T16:05:42;15.20;99.90
7204;DHT22;3643;52.460;13.322;2022-09-21T16:08:25;15.20;99.90
7204;DHT22;3643;52.460;13.322;2022-09-21T16:11:14;15.10;99.90
7204;DHT22;3643;52.460;13.322;2022-09-21T16:13:46;15.10;99.90
7204;DHT22;3643;52.460;13.322;2022-09-21T16:19:40;15.00;99.90
7204;DHT22;3643;52.460;13.322;2022-09-21T16:22:11;14.90;99.90
7204;DHT22;3643;52.460;13.322;2022-09-21T16:24:44;14.90;99.90
7204;DHT22;3643;52.460;13.322;2022-09-21T16:27:16;14.90;99.90
7204;DHT22;3643;52.460;13.322;2022-09-21T16:29:46;14.80;99.90
7204;DHT22;3643;52.460;13.322;2022-09-21T16:32:28;14.80;99.90
7204;DHT22;3643;52.460;13.322;2022-09-21T16:35:21;14.70;99.90
7204;DHT22;3643;52.460;13.322;2022-09-21T16:37:57;14.60;99.90
7204;DHT22;3643;52.460;13.322;2022-09-21T16:40:27;14.50;99.90
7204;DHT22;3643;52.460;13.322;2022-09-21T16:42:55;14.40;99.90
7204;DHT22;3643;52.460;13.322;2022-09-21T16:45:26;14.30;99.90
7204;DHT22;3643;52.460;13.322;2022-09-21T16:47:59;14.20;99.90
7204;DHT22;3643;52.460;13.322;2022-09-21T16:50:31;14.10;99.90
7204;DHT22;3643;52.460;13.322;2022-09-21T16:52:59;14.00;99.90
7204;DHT22;3643;52.460;13.322;2022-09-21T16:55:28;14.00;99.90
7204;DHT22;3643;52.460;13.322;2022-09-21T16:57:56;13.90;99.90
7204;DHT22;3643;52.460;13.322;2022-09-21T17:00:29;13.80;99.90
7204;DHT22;3643;52.460;13.322;2022-09-21T17:03:00;13.70;99.90
7204;DHT22;3643;52.460;13.322;2022-09-21T17:05:28;13.60;99.90
7204;DHT22;3643;52.460;13.322;2022-09-21T17:07:58;13.50;99.90
7204;DHT22;3643;52.460;13.322;2022-09-21T17:10:29;13.40;99.90
7204;DHT22;3643;52.460;13.322;2022-09-21T17:12:58;13.40;99.90
7204;DHT22;3643;52.460;13.322;2022-09-21T17:15:27;13.30;99.90
7204;DHT22;3643;52.460;13.322;2022-09-21T17:18:00;13.20;99.90
7204;DHT22;3643;52.460;13.322;2022-09-21T17:20:32;13.10;99.90
7204;DHT22;3643;52.460;13.322;2022-09-21T17:23:03;13.00;99.90
7204;DHT22;3643;52.460;13.322;2022-09-21T17:25:32;12.90;99.90
7204;DHT22;3643;52.460;13.322;2022-09-21T17:28:05;12.80;99.90
7204;DHT22;3643;52.460;13.322;2022-09-21T17:30:38;12.70;99.90
7204;DHT22;3643;52.460;13.322;2022-09-21T17:33:10;12.60;99.90
7204;DHT22;3643;52.460;13.322;2022-09-21T17:35:40;12.60;99.90
7204;DHT22;3643;52.460;13.322;2022-09-21T17:38:09;12.50;99.90
7204;DHT22;3643;52.460;13.322;2022-09-21T17:40:41;12.40;99.90
7204;DHT22;3643;52.460;13.322;2022-09-21T17:43:42;12.30;99.90
7204;DHT22;3643;52.460;13.322;2022-09-21T17:46:23;12.30;99.90
7204;DHT22;3643;52.460;13.322;2022-09-21T17:48:58;12.20;99.90
7204;DHT22;3643;52.460;13.322;2022-09-21T17:51:27;12.10;99.90
7204;DHT22;3643;52.460;13.322;2022-09-21T17:54:14;12.00;99.90
7204;DHT22;3643;52.460;13.322;2022-09-21T17:56:47;12.00;99.90
7204;DHT22;3643;52.460;13.322;2022-09-21T17:59:26;11.90;99.90
7204;DHT22;3643;52.460;13.322;2022-09-21T18:01:58;11.90;99.90
7204;DHT22;3643;52.460;13.322;2022-09-21T18:04:30;11.50;99.90
7204;DHT22;3643;52.460;13.322;2022-09-21T18:07:01;11.70;99.90
7204;DHT22;3643;52.460;13.322;2022-09-21T18:09:30;11.70;99.90
7204;DHT22;3643;52.460;13.322;2022-09-21T18:12:32;11.60;99.90
7204;DHT22;3643;52.460;13.322;2022-09-21T18:15:14;11.50;99.90
7204;DHT22;3643;52.460;13.322;2022-09-21T18:18:00;11.40;99.90
7204;DHT22;3643;52.460;13.322;2022-09-21T18:20:40;11.40;99.90
7204;DHT22;3643;52.460;13.322;2022-09-21T18:23:18;11.30;99.90
7204;DHT22;3643;52.460;13.322;2022-09-21T18:25:53;11.30;99.90
7204;DHT22;3643;52.460;13.322;2022-09-21T18:28:34;11.20;99.90
7204;DHT22;3643;52.460;13.322;2022-09-21T18:31:26;11.20;99.90
7204;DHT22;3643;52.460;13.322;2022-09-21T18:34:06;11.10;99.90
7204;DHT22;3643;52.460;13.322;2022-09-21T18:36:46;11.10;99.90
7204;DHT22;3643;52.460;13.322;2022-09-21T18:39:24;11.00;99.90
7204;DHT22;3643;52.460;13.322;2022-09-21T18:42:05;10.90;99.90
7204;DHT22;3643;52.460;13.322;2022-09-21T18:44:39;10.90;99.90
7204;DHT22;3643;52.460;13.322;2022-09-21T18:47:16;10.80;99.90
7204;DHT22;3643;52.460;13.322;2022-09-21T18:49:53;10.70;99.90
7204;DHT22;3643;52.460;13.322;2022-09-21T18:52:35;10.70;99.90
7204;DHT22;3643;52.460;13.322;2022-09-21T18:55:16;10.60;99.90
7204;DHT22;3643;52.460;13.322;2022-09-21T18:57:45;10.60;99.90
7204;DHT22;3643;52.460;13.322;2022-09-21T19:00:15;10.60;99.90
7204;DHT22;3643;52.460;13.322;2022-09-21T19:02:44;10.60;99.90
7204;DHT22;3643;52.460;13.322;2022-09-21T19:05:33;10.50;99.90
7204;DHT22;3643;52.460;13.322;2022-09-21T19:08:11;10.50;99.90
7204;DHT22;3643;52.460;13.322;2022-09-21T19:10:44;10.40;99.90
7204;DHT22;3643;52.460;13.322;2022-09-21T19:13:33;10.30;99.90
7204;DHT22;3643;52.460;13.322;2022-09-21T19:16:10;10.30;99.90
7204;DHT22;3643;52.460;13.322;2022-09-21T19:18:45;10.20;99.90
7204;DHT22;3643;52.460;13.322;2022-09-21T19:21:27;10.10;99.90
7204;DHT22;3643;52.460;13.322;2022-09-21T19:24:07;10.10;99.90
7204;DHT22;3643;52.460;13.322;2022-09-21T19:26:45;10.10;99.90
7204;DHT22;3643;52.460;13.322;2022-09-21T19:29:47;10.00;99.90
7204;DHT22;3643;52.460;13.322;2022-09-21T19:32:31;10.30;99.90
7204;DHT22;3643;52.460;13.322;2022-09-21T19:35:14;9.90;99.90
7204;DHT22;3643;52.460;13.322;2022-09-21T19:37:45;9.90;99.90
7204;DHT22;3643;52.460;13.322;2022-09-21T19:40:18;9.80;99.90
7204;DHT22;3643;52.460;13.322;2022-09-21T19:43:00;9.80;99.90
7204;DHT22;3643;52.460;13.322;2022-09-21T19:45:41;9.80;99.90
7204;DHT22;3643;52.460;13.322;2022-09-21T19:48:14;9.70;99.90
7204;DHT22;3643;52.460;13.322;2022-09-21T19:50:47;9.70;99.90
7204;DHT22;3643;52.460;13.322;2022-09-21T19:53:21;9.60;99.90
7204;DHT22;3643;52.460;13.322;2022-09-21T19:56:15;9.60;99.90
7204;DHT22;3643;52.460;13.322;2022-09-21T19:59:01;9.60;99.90
7204;DHT22;3643;52.460;13.322;2022-09-21T20:01:56;9.60;99.90
7204;DHT22;3643;52.460;13.322;2022-09-21T20:04:28;9.60;99.90
7204;DHT22;3643;52.460;13.322;2022-09-21T20:07:06;9.60;99.90
7204;DHT22;3643;52.460;13.322;2022-09-21T20:09:42;9.60;99.90
7204;DHT22;3643;52.460;13.322;2022-09-21T20:12:17;9.60;99.90
7204;DHT22;3643;52.460;13.322;2022-09-21T20:14:52;9.60;99.90
7204;DHT22;3643;52.460;13.322;2022-09-21T20:17:29;9.50;99.90
7204;DHT22;3643;52.460;13.322;2022-09-21T20:20:06;9.50;99.90
7204;DHT22;3643;52.460;13.322;2022-09-21T20:22:39;9.50;99.90
7204;DHT22;3643;52.460;13.322;2022-09-21T20:25:14;9.50;99.90
7204;DHT22;3643;52.460;13.322;2022-09-21T20:27:47;9.50;99.90
7204;DHT22;3643;52.460;13.322;2022-09-21T20:30:18;9.60;99.90
7204;DHT22;3643;52.460;13.322;2022-09-21T20:32:56;9.60;99.90
7204;DHT22;3643;52.460;13.322;2022-09-21T20:35:26;9.60;99.90
7204;DHT22;3643;52.460;13.322;2022-09-21T20:37:56;9.60;99.90
7204;DHT22;3643;52.460;13.322;2022-09-21T20:40:29;9.60;99.90
7204;DHT22;3643;52.460;13.322;2022-09-21T20:43:00;9.60;99.90
7204;DHT22;3643;52.460;13.322;2022-09-21T20:45:29;9.60;99.90
7204;DHT22;3643;52.460;13.322;2022-09-21T20:47:58;9.60;99.90
7204;DHT22;3643;52.460;13.322;2022-09-21T20:50:39;9.60;99.90